Aérodrome :
LOGIN :

S'inscrire | Disclaimer

   EN    FR    IT 

 










Légende :    VFR   VFR Marginal   IFR   IFR Intensif   IFR Très Intensif
Visi : 
Plafond : 
>= 8 km
>= 3000ft
5 à 8 km
1000 à 3000 ft
1500m à 5 km
500 à 1000 ft
800 à 1500m
200 à 500 ft
< 800m
< 200 ft
Symboles :   Orages  Brouillard  Fortes neiges  Fortes précipitations  Vent > 20 kt
SIGMETs :   Divers  Orages  Givrage  Turbulence  Onde Orograph.  Cendres Volcan.







- Altitude de l'aérodrome : -15 ft
- Code IATA : RTM


EHRD - Rotterdam Zestienhoven

DERNIER METAR :
  • 100225Z AUTO 30013KT 270V330 9999 FEW015CB SCT049 06/03 Q1018 TEMPO 32020G30KT 6000 SHRA

METARs EXPIRÉS :
  • 100155Z AUTO 31014KT 270V010 9999 FEW016CB 07/03 Q1018 TEMPO 32020G30KT 6000 SHRA
  • 100125Z AUTO 30017KT 260V330 9999 FEW010 FEW015CB 06/03 Q1018 TEMPO 32020G30KT 6000 SHRA
  • 100055Z AUTO 32018G34KT 280V010 9000 -SHRA FEW004 FEW015CB SCT020 BKN023 06/03 Q1018 RERA BECMG 31015KT
  • 100025Z AUTO 29012KT 250V320 9999 FEW015CB SCT038 BKN049 07/03 Q1017 TEMPO 32022G34KT 6000 SHRA SCT020CB
  • 092355Z AUTO 29017G27KT 250V330 9999 FEW015CB 07/03 Q1017 REDZ TEMPO 32022G34KT 6000 SHRA SCT020CB

TAF TAF EHRD
Valide du 10 à 00h jusqu'au 11 à 06h UTC


092309Z 1000/1106 31015KT 9999 SCT030
PROB40
TEMPO 1000/1015 32022G34KT 6000 SHRA SCT020CB SCT030
PROB30
TEMPO 1015/1024 7000 -SHRA FEW025TCU
BECMG 1018/1021 30010KT
Pas de NOTAMs connus pour ce terrain.



MET'MAP, la Météo Aéronautique d'un coup d'oeil ! - Copyright ORBIFLY Décembre 2007 - Disclaimer

ORBIFLY MET'MAP TEAM :

Programmation & Développement : Alexandra Zaïnal
Conception & Développement : Baudouin d'Aumeries
Co-Programmation & Développement : Marc-Olivier Méhu
Soutien technique & logistique : Manuel Goepfert

Contact : metmap@orbifly.com




SOURCES & CREDITS :

   NOAA